PWSweather.com
Personal Weather Stations
Station Observations
WARREN
Narre Warren , MelbourneAU

Narre Warren MelbourneAU

Lat: -38.0314269, Lon: 145.3160851

Elevation: 24

Station Type: Digiteck

http://www.aussiedownunder.net/

High Low Average
Temperature 66.6°F19.2°F 52.7°F11.5°F 58.8°F14.9°F
Dew Point 44.7°F7.1°F 33.4°F0.8°F 39.6°F4.2°F
Winds 10.0 mph -16.1 mph - 2.8 mph 4.5 mph 5.9 mph 9.5 mph
Wind Gusts 24.4 mph39.3 mph 8.3 mph13.4 mph 15.3 mph24.6 mph
Humidity 74% 31% 50%
Pressure 29.58 in1001.70 in 29.43 in996.60 in -
Precipitation 0.04 in1.00 in - -
Hour Temp Dew Point Humidity Winds Wind Gusts Pressure Precip Precip Rate Daily Precip Total
12:00 AM 58.8°F14.9°C 42.2°F5.7°C 54% 6.0 mph N9.7 kmh N 15.2 mph24.5 kmh 29.58 in1001.7 mb 0.00 in0.0 mm 0.00 in0.0 mm 0.00 in0.0 mm
12:15 AM 58.6°F14.8°C 42.1°F5.6°C 54% 6.0 mph N9.7 kmh N 13.0 mph20.9 kmh 29.57 in1001.4 mb 0.00 in0.0 mm 0.00 in0.0 mm 0.00 in0.0 mm
12:30 AM 58.6°F14.8°C 42.1°F5.6°C 54% 5.5 mph N8.9 kmh N 17.4 mph28.0 kmh 29.56 in1001.0 mb 0.00 in0.0 mm 0.00 in0.0 mm 0.00 in0.0 mm
12:45 AM 58.8°F14.9°C 41.2°F5.1°C 52% 5.0 mph NNW8.0 kmh NNW 15.2 mph24.5 kmh 29.57 in1001.4 mb 0.00 in0.0 mm 0.00 in0.0 mm 0.00 in0.0 mm
01:00 AM 59.4°F15.2°C 39.7°F4.3°C 48% 6.4 mph N10.3 kmh N 19.7 mph31.7 kmh 29.54 in1000.3 mb 0.00 in0.0 mm 0.00 in0.0 mm 0.00 in0.0 mm
01:15 AM 59.9°F15.5°C 39.1°F3.9°C 46% 6.8 mph NW10.9 kmh NW 16.8 mph27.0 kmh 29.53 in1000.0 mb 0.00 in0.0 mm 0.00 in0.0 mm 0.00 in0.0 mm
01:30 AM 60.1°F15.6°C 38.7°F3.7°C 45% 6.9 mph N11.1 kmh N 15.9 mph25.6 kmh 29.52 in999.7 mb 0.00 in0.0 mm 0.00 in0.0 mm 0.00 in0.0 mm
01:45 AM 59.9°F15.5°C 38.5°F3.6°C 45% 5.4 mph NW8.7 kmh NW 17.4 mph28.0 kmh 29.52 in999.7 mb 0.00 in0.0 mm 0.00 in0.0 mm 0.00 in0.0 mm
02:00 AM 59.5°F15.3°C 38.8°F3.8°C 46% 4.7 mph WNW7.6 kmh WNW 17.4 mph28.0 kmh 29.53 in1000.0 mb 0.00 in0.0 mm 0.00 in0.0 mm 0.00 in0.0 mm
02:15 AM 59.2°F15.1°C 39.0°F3.9°C 47% 4.3 mph WNW6.9 kmh WNW 15.2 mph24.5 kmh 29.52 in999.7 mb 0.00 in0.0 mm 0.00 in0.0 mm 0.00 in0.0 mm
02:30 AM 59.7°F15.4°C 37.2°F2.9°C 43% 5.4 mph N8.7 kmh N 13.0 mph20.9 kmh 29.48 in998.3 mb 0.00 in0.0 mm 0.00 in0.0 mm 0.00 in0.0 mm
02:45 AM 59.7°F15.4°C 37.2°F2.9°C 43% 5.9 mph NNE9.5 kmh NNE 15.2 mph24.5 kmh 29.46 in997.6 mb 0.00 in0.0 mm 0.00 in0.0 mm 0.00 in0.0 mm
03:00 AM 59.5°F15.3°C 37.0°F2.8°C 43% 6.0 mph NW9.7 kmh NW 24.4 mph39.3 kmh 29.48 in998.3 mb 0.00 in0.0 mm 0.00 in0.0 mm 0.00 in0.0 mm
03:15 AM 59.4°F15.2°C 36.9°F2.7°C 43% 6.5 mph N10.5 kmh N 18.3 mph29.5 kmh 29.47 in998.0 mb 0.00 in0.0 mm 0.00 in0.0 mm 0.00 in0.0 mm
03:30 AM 58.8°F14.9°C 37.5°F3.1°C 45% 5.6 mph N9.0 kmh N 23.5 mph37.8 kmh 29.45 in997.3 mb 0.00 in0.0 mm 0.00 in0.0 mm 0.00 in0.0 mm
03:45 AM 58.5°F14.7°C 37.2°F2.9°C 45% 5.1 mph NW8.2 kmh NW 16.8 mph27.0 kmh 29.45 in997.3 mb 0.00 in0.0 mm 0.00 in0.0 mm 0.00 in0.0 mm
04:00 AM 58.3°F14.6°C 37.0°F2.8°C 45% 5.0 mph NW8.0 kmh NW 16.8 mph27.0 kmh 29.45 in997.3 mb 0.00 in0.0 mm 0.00 in0.0 mm 0.00 in0.0 mm
04:15 AM 57.9°F14.4°C 36.7°F2.6°C 45% 5.2 mph WNW8.4 kmh WNW 18.3 mph29.5 kmh 29.45 in997.3 mb 0.00 in0.0 mm 0.00 in0.0 mm 0.00 in0.0 mm
04:30 AM 57.4°F14.1°C 36.8°F2.7°C 46% 4.9 mph NW7.9 kmh NW 13.6 mph21.9 kmh 29.44 in997.0 mb 0.00 in0.0 mm 0.00 in0.0 mm 0.00 in0.0 mm
04:45 AM 57.0°F13.9°C 37.5°F3.1°C 48% 6.1 mph W9.8 kmh W 15.9 mph25.6 kmh 29.44 in997.0 mb 0.00 in0.0 mm 0.00 in0.0 mm 0.00 in0.0 mm
05:00 AM 56.7°F13.7°C 37.2°F2.9°C 48% 4.2 mph NW6.8 kmh NW 10.7 mph17.2 kmh 29.44 in997.0 mb 0.00 in0.0 mm 0.00 in0.0 mm 0.00 in0.0 mm
05:15 AM 56.8°F13.8°C 37.4°F3.0°C 48% 4.6 mph NW7.4 kmh NW 13.6 mph21.9 kmh 29.43 in996.6 mb 0.00 in0.0 mm 0.00 in0.0 mm 0.00 in0.0 mm
05:30 AM 57.0°F13.9°C 37.5°F3.1°C 48% 4.4 mph NW7.1 kmh NW 14.5 mph23.3 kmh 29.43 in996.6 mb 0.00 in0.0 mm 0.00 in0.0 mm 0.00 in0.0 mm
05:45 AM 57.2°F14.0°C 37.2°F2.9°C 47% 3.8 mph NNE6.1 kmh NNE 11.4 mph18.3 kmh 29.44 in997.0 mb 0.00 in0.0 mm 0.00 in0.0 mm 0.00 in0.0 mm
06:00 AM 57.2°F14.0°C 37.2°F2.9°C 47% 4.7 mph NW7.6 kmh NW 11.4 mph18.3 kmh 29.45 in997.3 mb 0.00 in0.0 mm 0.00 in0.0 mm 0.00 in0.0 mm
06:15 AM 56.8°F13.8°C 37.9°F3.3°C 49% 4.4 mph NNW7.1 kmh NNW 13.0 mph20.9 kmh 29.44 in997.0 mb 0.00 in0.0 mm 0.00 in0.0 mm 0.00 in0.0 mm
06:30 AM 56.7°F13.7°C 37.7°F3.2°C 49% 4.7 mph NW7.6 kmh NW 16.8 mph27.0 kmh 29.45 in997.3 mb 0.00 in0.0 mm 0.00 in0.0 mm 0.00 in0.0 mm
06:45 AM 56.5°F13.6°C 38.1°F3.4°C 50% 4.0 mph N6.4 kmh N 12.1 mph19.5 kmh 29.45 in997.3 mb 0.00 in0.0 mm 0.00 in0.0 mm 0.00 in0.0 mm
07:00 AM 56.1°F13.4°C 38.3°F3.5°C 51% 3.3 mph NW5.3 kmh NW 9.2 mph14.8 kmh 29.45 in997.3 mb 0.00 in0.0 mm 0.00 in0.0 mm 0.00 in0.0 mm
07:15 AM 56.1°F13.4°C 38.7°F3.7°C 52% 3.3 mph N5.3 kmh N 9.8 mph15.8 kmh 29.45 in997.3 mb 0.00 in0.0 mm 0.00 in0.0 mm 0.00 in0.0 mm
07:30 AM 55.9°F13.3°C 39.5°F4.2°C 54% 2.9 mph NW4.7 kmh NW 8.3 mph13.4 kmh 29.46 in997.6 mb 0.00 in0.0 mm 0.00 in0.0 mm 0.00 in0.0 mm
07:45 AM 55.8°F13.2°C 39.8°F4.3°C 55% 3.4 mph N5.5 kmh N 9.2 mph14.8 kmh 29.46 in997.6 mb 0.00 in0.0 mm 0.00 in0.0 mm 0.00 in0.0 mm
08:00 AM 55.6°F13.1°C 39.7°F4.3°C 55% 3.1 mph N5.0 kmh N 8.3 mph13.4 kmh 29.46 in997.6 mb 0.00 in0.0 mm 0.00 in0.0 mm 0.00 in0.0 mm
08:15 AM 55.9°F13.3°C 40.0°F4.4°C 55% 3.4 mph N5.5 kmh N 10.7 mph17.2 kmh 29.46 in997.6 mb 0.00 in0.0 mm 0.00 in0.0 mm 0.00 in0.0 mm
08:30 AM 55.8°F13.2°C 39.8°F4.3°C 55% 4.6 mph NW7.4 kmh NW 13.0 mph20.9 kmh 29.47 in998.0 mb 0.00 in0.0 mm 0.00 in0.0 mm 0.00 in0.0 mm
08:45 AM 55.6°F13.1°C 40.1°F4.5°C 56% 4.4 mph WSW7.1 kmh WSW 13.0 mph20.9 kmh 29.48 in998.3 mb 0.00 in0.0 mm 0.00 in0.0 mm 0.00 in0.0 mm
09:00 AM 55.9°F13.3°C 40.5°F4.7°C 56% 3.6 mph NW5.8 kmh NW 10.7 mph17.2 kmh 29.49 in998.6 mb 0.00 in0.0 mm 0.00 in0.0 mm 0.00 in0.0 mm
09:15 AM 55.8°F13.2°C 41.2°F5.1°C 58% 3.6 mph NNW5.8 kmh NNW 13.0 mph20.9 kmh 29.49 in998.6 mb 0.00 in0.0 mm 0.00 in0.0 mm 0.00 in0.0 mm
09:30 AM 56.3°F13.5°C 41.7°F5.4°C 58% 2.9 mph N4.7 kmh N 11.4 mph18.3 kmh 29.50 in999.0 mb 0.00 in0.0 mm 0.00 in0.0 mm 0.00 in0.0 mm
09:45 AM 57.4°F14.1°C 41.8°F5.4°C 56% 2.9 mph NW4.7 kmh NW 8.3 mph13.4 kmh 29.50 in999.0 mb 0.00 in0.0 mm 0.00 in0.0 mm 0.00 in0.0 mm
10:00 AM 57.9°F14.4°C 42.3°F5.7°C 56% 2.8 mph NW4.5 kmh NW 9.2 mph14.8 kmh 29.49 in998.6 mb 0.00 in0.0 mm 0.00 in0.0 mm 0.00 in0.0 mm
10:15 AM 58.5°F14.7°C 42.4°F5.8°C 55% 3.9 mph W6.3 kmh W 10.7 mph17.2 kmh 29.50 in999.0 mb 0.00 in0.0 mm 0.00 in0.0 mm 0.00 in0.0 mm
10:30 AM 60.3°F15.7°C 43.1°F6.2°C 53% 7.3 mph WSW11.7 kmh WSW 21.3 mph34.3 kmh 29.50 in999.0 mb 0.00 in0.0 mm 0.00 in0.0 mm 0.00 in0.0 mm
10:45 AM 59.7°F15.4°C 42.6°F5.9°C 53% 7.9 mph SW12.7 kmh SW 17.4 mph28.0 kmh 29.49 in998.6 mb 0.00 in0.0 mm 0.00 in0.0 mm 0.00 in0.0 mm
11:00 AM 63.0°F17.2°C 42.4°F5.8°C 47% 8.5 mph W13.7 kmh W 18.3 mph29.5 kmh 29.49 in998.6 mb 0.00 in0.0 mm 0.00 in0.0 mm 0.00 in0.0 mm
11:15 AM 63.7°F17.6°C 42.0°F5.6°C 45% 8.7 mph SW14.0 kmh SW 20.6 mph33.2 kmh 29.49 in998.6 mb 0.00 in0.0 mm 0.00 in0.0 mm 0.00 in0.0 mm
11:30 AM 62.6°F17.0°C 39.8°F4.3°C 43% 8.8 mph SW14.2 kmh SW 21.3 mph34.3 kmh 29.49 in998.6 mb 0.00 in0.0 mm 0.00 in0.0 mm 0.00 in0.0 mm
11:45 AM 62.2°F16.8°C 39.5°F4.2°C 43% 8.0 mph SW12.9 kmh SW 20.6 mph33.2 kmh 29.48 in998.3 mb 0.00 in0.0 mm 0.00 in0.0 mm 0.00 in0.0 mm
12:00 PM 63.0°F17.2°C 37.0°F2.8°C 38% 7.3 mph WNW11.7 kmh WNW 15.2 mph24.5 kmh 29.48 in998.3 mb 0.00 in0.0 mm 0.00 in0.0 mm 0.00 in0.0 mm
12:15 PM 64.9°F18.3°C 39.4°F4.1°C 39% 7.5 mph W12.1 kmh W 14.5 mph23.3 kmh 29.47 in998.0 mb 0.00 in0.0 mm 0.00 in0.0 mm 0.00 in0.0 mm
12:30 PM 65.1°F18.4°C 38.9°F3.8°C 38% 9.3 mph W15.0 kmh W 20.6 mph33.2 kmh 29.46 in997.6 mb 0.00 in0.0 mm 0.00 in0.0 mm 0.00 in0.0 mm
12:45 PM 66.2°F19.0°C 38.5°F3.6°C 36% 8.6 mph WNW13.8 kmh WNW 20.6 mph33.2 kmh 29.46 in997.6 mb 0.00 in0.0 mm 0.00 in0.0 mm 0.00 in0.0 mm
01:00 PM 66.6°F19.2°C 38.8°F3.8°C 36% 9.4 mph WSW15.1 kmh WSW 19.7 mph31.7 kmh 29.46 in997.6 mb 0.00 in0.0 mm 0.00 in0.0 mm 0.00 in0.0 mm
01:15 PM 64.9°F18.3°C 38.7°F3.7°C 38% 8.3 mph W13.4 kmh W 15.9 mph25.6 kmh 29.46 in997.6 mb 0.00 in0.0 mm 0.00 in0.0 mm 0.00 in0.0 mm
01:30 PM 64.6°F18.1°C 37.7°F3.2°C 37% 7.8 mph W12.6 kmh W 16.8 mph27.0 kmh 29.46 in997.6 mb 0.00 in0.0 mm 0.00 in0.0 mm 0.00 in0.0 mm
01:45 PM 64.8°F18.2°C 33.4°F0.8°C 31% 10.0 mph WNW16.1 kmh WNW 20.6 mph33.2 kmh 29.46 in997.6 mb 0.00 in0.0 mm 0.00 in0.0 mm 0.00 in0.0 mm
02:00 PM 62.2°F16.8°C 35.7°F2.1°C 37% 8.2 mph SW13.2 kmh SW 17.4 mph28.0 kmh 29.46 in997.6 mb 0.01 in0.3 mm 0.01 in0.3 mm 0.01 in0.3 mm
02:15 PM 64.0°F17.8°C 35.9°F2.2°C 35% 8.1 mph WNW13.0 kmh WNW 17.4 mph28.0 kmh 29.46 in997.6 mb 0.01 in0.3 mm 0.00 in0.0 mm 0.01 in0.3 mm
02:30 PM 62.6°F17.0°C 37.3°F2.9°C 39% 8.4 mph WSW13.5 kmh WSW 18.3 mph29.5 kmh 29.47 in998.0 mb 0.01 in0.3 mm 0.00 in0.0 mm 0.01 in0.3 mm
02:45 PM 61.5°F16.4°C 38.8°F3.8°C 43% 7.9 mph WSW12.7 kmh WSW 16.8 mph27.0 kmh 29.46 in997.6 mb 0.01 in0.3 mm 0.00 in0.0 mm 0.01 in0.3 mm
03:00 PM 61.3°F16.3°C 39.3°F4.1°C 44% 7.4 mph W11.9 kmh W 16.8 mph27.0 kmh 29.47 in998.0 mb 0.00 in0.0 mm 0.00 in0.0 mm 0.01 in0.3 mm
03:15 PM 58.1°F14.5°C 43.0°F6.1°C 57% 8.7 mph W14.0 kmh W 19.0 mph30.6 kmh 29.48 in998.3 mb 0.00 in0.0 mm 0.00 in0.0 mm 0.01 in0.3 mm
03:30 PM 59.5°F15.3°C 43.4°F6.3°C 55% 7.6 mph W12.2 kmh W 15.2 mph24.5 kmh 29.48 in998.3 mb 0.00 in0.0 mm 0.00 in0.0 mm 0.01 in0.3 mm
03:45 PM 59.7°F15.4°C 41.1°F5.1°C 50% 6.6 mph SW10.6 kmh SW 13.6 mph21.9 kmh 29.48 in998.3 mb 0.00 in0.0 mm 0.00 in0.0 mm 0.01 in0.3 mm
04:00 PM 57.7°F14.3°C 41.7°F5.4°C 55% 6.8 mph WSW10.9 kmh WSW 16.8 mph27.0 kmh 29.49 in998.6 mb 0.00 in0.0 mm 0.00 in0.0 mm 0.01 in0.3 mm
04:15 PM 56.3°F13.5°C 42.6°F5.9°C 60% 6.9 mph SW11.1 kmh SW 14.5 mph23.3 kmh 29.49 in998.6 mb 0.00 in0.0 mm 0.00 in0.0 mm 0.01 in0.3 mm
04:30 PM 55.6°F13.1°C 41.5°F5.3°C 59% 7.7 mph WNW12.4 kmh WNW 18.3 mph29.5 kmh 29.50 in999.0 mb 0.00 in0.0 mm 0.00 in0.0 mm 0.01 in0.3 mm
04:45 PM 55.2°F12.9°C 42.0°F5.6°C 61% 7.2 mph W11.6 kmh W 15.9 mph25.6 kmh 29.50 in999.0 mb 0.00 in0.0 mm 0.00 in0.0 mm 0.01 in0.3 mm
05:00 PM 54.7°F12.6°C 42.3°F5.7°C 63% 5.5 mph SW8.9 kmh SW 13.6 mph21.9 kmh 29.51 in999.3 mb 0.00 in0.0 mm 0.00 in0.0 mm 0.01 in0.3 mm
05:15 PM 54.1°F12.3°C 43.0°F6.1°C 66% 5.9 mph WSW9.5 kmh WSW 13.6 mph21.9 kmh 29.52 in999.7 mb 0.00 in0.0 mm 0.00 in0.0 mm 0.01 in0.3 mm
05:30 PM 54.3°F12.4°C 42.4°F5.8°C 64% 5.8 mph SW9.3 kmh SW 14.5 mph23.3 kmh 29.53 in1000.0 mb 0.00 in0.0 mm 0.00 in0.0 mm 0.01 in0.3 mm
05:45 PM 53.8°F12.1°C 43.9°F6.6°C 69% 7.5 mph WSW12.1 kmh WSW 15.2 mph24.5 kmh 29.54 in1000.3 mb 0.00 in0.0 mm 0.00 in0.0 mm 0.01 in0.3 mm
06:00 PM 52.9°F11.6°C 44.5°F6.9°C 73% 5.5 mph WNW8.9 kmh WNW 12.1 mph19.5 kmh 29.55 in1000.7 mb 0.00 in0.0 mm 0.00 in0.0 mm 0.01 in0.3 mm
06:15 PM 52.7°F11.5°C 44.7°F7.1°C 74% 4.9 mph WNW7.9 kmh WNW 10.7 mph17.2 kmh 29.55 in1000.7 mb 0.00 in0.0 mm 0.00 in0.0 mm 0.01 in0.3 mm